M I D A S
Marine Information and Data Acquisition System
Tripno 488 of the Zeeleeuw from 2003-04-09 06:23:00 to 2003-04-09 13:32:44
Back to CruiseResearch ActivitiesStationsMapUnderway DataData graphs

EquipmentUnitsComment
TimeDGPSUTC
LatitudeDGPSDM.mWGS84
LongitudeDGPSDM.mWGS84
HeadingGyrodeg 
SOGDGPSknotsSpeed over ground
COGDGPSdegCourse over ground
DepthEcho soundermeters200 kHz
Missing or incorrect values are displayed as -999
Navigation data collected by the RV Zeeleeuw from 2003-04-09 06:23:00 to 2003-04-09 13:32:44
                                                                                    Next 1000 lines
Time Latitude Longitude Heading SOG COG Depth
2003-04-09 06:23:11 51°13.602 2°56.089 108.2 1.9 285 9.9
2003-04-09 06:23:16 51°13.603 2°56.084 109.1 2.6 286 -999
2003-04-09 06:23:22 51°13.604 2°56.075 110.2 3 287 -999
2003-04-09 06:23:26 51°13.606 2°56.069 110.9 3.4 288 -999
2003-04-09 06:23:32 51°13.608 2°56.06 111.6 3.7 289 -999
2003-04-09 06:23:36 51°13.609 2°56.053 112.1 4 289 -999
2003-04-09 06:23:42 51°13.611 2°56.042 112.6 4.3 288 -999
2003-04-09 06:23:46 51°13.613 2°56.034 113.1 4.5 288 -999
2003-04-09 06:23:52 51°13.616 2°56.021 113.4 4.8 288 -999
2003-04-09 06:23:56 51°13.618 2°56.013 114 5 289 -999
2003-04-09 06:24:02 51°13.621 2°56 114.6 5.2 290 -999
2003-04-09 06:24:07 51°13.623 2°55.988 115.4 5.3 290 -999
2003-04-09 06:24:12 51°13.626 2°55.977 116.7 5.4 290 -999
2003-04-09 06:24:16 51°13.628 2°55.968 117.5 5.4 291 5.4
2003-04-09 06:24:22 51°13.632 2°55.955 118.6 5.5 293 -999
2003-04-09 06:24:27 51°13.635 2°55.944 119.4 5.6 294 -999
2003-04-09 06:24:32 51°13.639 2°55.932 120.6 5.7 295 -999
2003-04-09 06:24:36 51°13.641 2°55.923 121.2 5.7 295 -999
2003-04-09 06:24:42 51°13.646 2°55.91 121.7 5.7 296 -999
2003-04-09 06:24:47 51°13.649 2°55.899 121.9 5.6 296 -999
2003-04-09 06:24:52 51°13.653 2°55.888 122.1 5.6 297 -999
2003-04-09 06:24:56 51°13.656 2°55.879 122.2 5.6 297 -999
2003-04-09 06:25:02 51°13.66 2°55.866 122.1 5.5 297 -999
2003-04-09 06:25:06 51°13.663 2°55.857 121.7 5.5 298 -999
2003-04-09 06:25:12 51°13.668 2°55.845 121 5.5 298 -999
2003-04-09 06:25:16 51°13.67 2°55.836 120.3 5.4 298 -999
2003-04-09 06:25:22 51°13.674 2°55.824 119.7 5.3 297 -999
2003-04-09 06:25:27 51°13.677 2°55.813 119.2 5.3 297 -999
2003-04-09 06:25:32 51°13.68 2°55.803 118.4 5.2 296 -999
2003-04-09 06:25:36 51°13.683 2°55.795 117.8 5 296 -999
2003-04-09 06:25:42 51°13.686 2°55.784 117.5 4.8 296 -999
2003-04-09 06:25:46 51°13.688 2°55.777 117.2 4.6 296 5.1
2003-04-09 06:25:51 51°13.691 2°55.769 116.8 4.4 296 12.3
2003-04-09 06:25:54 51°13.692 2°55.765 115.2 3.7 294 12.6
2003-04-09 06:26:00 51°13.694 2°55.759 112.7 3.1 295 12.3
2003-04-09 06:26:06 51°13.695 2°55.754 109.4 2.3 294 12.4
2003-04-09 06:26:10 51°13.695 2°55.752 105.2 1.8 294 12.4
2003-04-09 06:26:14 51°13.696 2°55.75 101.7 1.2 293 12.4
2003-04-09 06:26:20 51°13.696 2°55.748 96.4 0.9 296 12.5
2003-04-09 06:26:25 51°13.697 2°55.748 92.8 0.5 313 12.5
2003-04-09 06:26:31 51°13.698 2°55.748 86.5 0.4 356 12.5
2003-04-09 06:26:35 51°13.698 2°55.749 81.7 0.6 33 12.5
2003-04-09 06:26:40 51°13.699 2°55.751 74.1 0.8 43 12.5
2003-04-09 06:26:46 51°13.701 2°55.754 69 1.1 48 12.5
2003-04-09 06:26:51 51°13.702 2°55.755 63.4 1.2 47 12.5
2003-04-09 06:26:56 51°13.703 2°55.757 59.7 1.1 42 12.5
2003-04-09 06:27:00 51°13.703 2°55.757 56.8 0.9 39 12.4
2003-04-09 06:27:06 51°13.704 2°55.757 53.5 0.4 23 12.4
2003-04-09 06:27:11 51°13.704 2°55.756 50.9 0.2 313 12.4
2003-04-09 06:27:16 51°13.704 2°55.754 48.8 0.6 248 12.4
2003-04-09 06:27:20 51°13.704 2°55.753 47 0.9 239 12.4
2003-04-09 06:27:26 51°13.704 2°55.75 45.8 1.2 233 12.5
2003-04-09 06:27:31 51°13.704 2°55.748 44.7 1.4 231 -999
2003-04-09 06:27:36 51°13.702 2°55.745 43.1 1.6 226 -999
2003-04-09 06:27:42 51°13.7 2°55.743 41.9 1.5 227 -999
2003-04-09 06:27:46 51°13.699 2°55.741 40.9 1.4 228 5
2003-04-09 06:27:51 51°13.698 2°55.739 39.9 1.2 231 5.1
2003-04-09 06:27:56 51°13.696 2°55.737 38.1 0.9 232 5.1
2003-04-09 06:28:00 51°13.695 2°55.736 35.1 0.7 236 6.2
2003-04-09 06:28:06 51°13.695 2°55.736 32.3 0.4 253 7.3
2003-04-09 06:28:11 51°13.696 2°55.735 28.3 0.3 285 5.4
2003-04-09 06:28:15 51°13.697 2°55.735 24.3 0.4 339 5.1
2003-04-09 06:28:20 51°13.698 2°55.735 19.8 0.7 352 12.5
2003-04-09 06:28:26 51°13.698 2°55.734 14 0.9 354 5.5
2003-04-09 06:28:31 51°13.701 2°55.734 8.8 1.2 353 5.5
2003-04-09 06:28:36 51°13.704 2°55.733 3.4 1.6 351 -999
2003-04-09 06:28:42 51°13.704 2°55.731 356.4 1.6 345 -999
2003-04-09 06:28:46 51°13.703 2°55.729 351.2 1.7 341 12.5
2003-04-09 06:28:50 51°13.702 2°55.727 348.1 1.7 339 12.6
2003-04-09 06:28:55 51°13.7 2°55.724 345.6 2.1 336 12.5
2003-04-09 06:29:00 51°13.703 2°55.721 342.9 2.5 335 11.9
2003-04-09 06:29:06 51°13.709 2°55.718 341.8 3 334 11.8
2003-04-09 06:29:10 51°13.714 2°55.716 341 3.2 333 11.7
2003-04-09 06:29:16 51°13.721 2°55.711 340.3 3.7 333 11.4
2003-04-09 06:29:20 51°13.726 2°55.708 339.3 3.9 332 11.1
2003-04-09 06:29:26 51°13.733 2°55.702 338.6 4.3 332 11.2
2003-04-09 06:29:31 51°13.739 2°55.697 337.5 4.5 331 11.2
2003-04-09 06:29:36 51°13.746 2°55.692 336.3 4.9 330 11.1
2003-04-09 06:29:40 51°13.751 2°55.687 335.6 5.1 330 10.8
2003-04-09 06:29:45 51°13.758 2°55.68 336 4.2 331 11.1
2003-04-09 06:29:50 51°13.765 2°55.674 336.7 4 332 11.6
2003-04-09 06:30:00 51°13.783 2°55.662 335.8 1.8 334 11.6
2003-04-09 06:30:15 51°13.81 2°55.643 336.9 0.3 330 11.5
2003-04-09 06:30:26 51°13.827 2°55.627 337.6 0.3 331 11.5
2003-04-09 06:30:29 51°13.833 2°55.623 338.3 2.7 333 11.5
2003-04-09 06:30:35 51°13.845 2°55.614 338.6 6.5 334 11.3
2003-04-09 06:30:39 51°13.852 2°55.609 338.9 7.4 334 11.4
2003-04-09 06:30:45 51°13.861 2°55.602 339.3 7.4 334 11.4
2003-04-09 06:30:53 51°13.876 2°55.59 339.7 5.6 335 11.4
2003-04-09 06:30:57 51°13.881 2°55.583 340.1 6.2 336 11.4
2003-04-09 06:31:03 51°13.888 2°55.576 340.8 7.1 337 11.4
2003-04-09 06:31:08 51°13.898 2°55.57 340.9 7.7 338 11.4
2003-04-09 06:31:13 51°13.906 2°55.563 340.9 7.7 337 11.4
2003-04-09 06:31:18 51°13.915 2°55.556 340.9 7.5 336 11.4
2003-04-09 06:31:23 51°13.924 2°55.549 341 7.4 335 11.4
2003-04-09 06:31:28 51°13.935 2°55.543 340.9 7.4 335 11.4
2003-04-09 06:31:32 51°13.944 2°55.538 341.1 7.4 335 11.4
2003-04-09 06:31:38 51°13.957 2°55.53 341.5 7.5 336 11.4
2003-04-09 06:31:43 51°13.968 2°55.523 341.5 7.5 336 11.4
2003-04-09 06:31:48 51°13.978 2°55.517 341.4 7.5 336 11.4
2003-04-09 06:31:52 51°13.986 2°55.512 341.8 7.5 336 11.4
2003-04-09 06:31:56 51°13.994 2°55.506 342.1 7.5 336 11.4
2003-04-09 06:32:02 51°14.005 2°55.498 342.3 7.5 336 11.4
2003-04-09 06:32:08 51°14.017 2°55.49 342.3 7.5 337 11.3
2003-04-09 06:32:13 51°14.026 2°55.484 342.4 7.5 337 11.4
2003-04-09 06:32:18 51°14.034 2°55.477 342.4 7.5 337 11
2003-04-09 06:32:23 51°14.042 2°55.47 342.2 7.5 337 11.2
2003-04-09 06:32:27 51°14.049 2°55.465 342.7 7.5 337 10.9
2003-04-09 06:32:32 51°14.058 2°55.458 342.8 7.5 337 10.7
2003-04-09 06:32:38 51°14.068 2°55.45 342.5 7.6 337 10.8
2003-04-09 06:32:42 51°14.076 2°55.445 342.5 7.6 337 11.2
2003-04-09 06:32:48 51°14.088 2°55.437 342.3 7.6 337 11.4
2003-04-09 06:32:52 51°14.096 2°55.432 342.2 7.6 337 11.4
2003-04-09 06:32:58 51°14.108 2°55.424 341.9 7.6 336 11.4
2003-04-09 06:33:03 51°14.118 2°55.417 341.4 7.6 336 11.4
2003-04-09 06:33:08 51°14.128 2°55.41 340.8 7.6 335 11.5
2003-04-09 06:33:12 51°14.136 2°55.404 340.2 7.7 335 11.4
2003-04-09 06:33:16 51°14.144 2°55.398 339 7.7 334 11.4
2003-04-09 06:33:23 51°14.158 2°55.387 337.9 7.8 333 11.5
2003-04-09 06:33:28 51°14.168 2°55.378 336 7.9 331 11.4
2003-04-09 06:33:32 51°14.176 2°55.371 334.1 8 330 11.4
2003-04-09 06:33:38 51°14.187 2°55.359 332.5 8.2 328 11.5
2003-04-09 06:33:43 51°14.197 2°55.349 331.1 8.4 327 11.5
2003-04-09 06:33:48 51°14.206 2°55.338 329.6 8.5 325 11.5
2003-04-09 06:33:52 51°14.214 2°55.329 328.2 8.5 324 11.5
2003-04-09 06:33:58 51°14.225 2°55.314 326.7 8.6 322 11.5
2003-04-09 06:34:03 51°14.235 2°55.302 325.2 8.7 322 11.5
2003-04-09 06:34:08 51°14.244 2°55.289 323.8 8.9 320 11.5
2003-04-09 06:34:12 51°14.251 2°55.278 322.5 8.9 319 11.5
2003-04-09 06:34:18 51°14.261 2°55.261 320.9 8.9 317 11.6
2003-04-09 06:34:22 51°14.268 2°55.25 318.9 9 315 11.6
2003-04-09 06:34:28 51°14.277 2°55.231 316.5 9 313 11.6
2003-04-09 06:34:33 51°14.285 2°55.215 314.8 9.1 312 11.6
2003-04-09 06:34:38 51°14.293 2°55.199 313.6 9 309 11.7
2003-04-09 06:34:43 51°14.3 2°55.183 312.7 9 308 11.6
2003-04-09 06:34:47 51°14.305 2°55.17 312.1 9 306 11.6
2003-04-09 06:34:52 51°14.312 2°55.154 311.4 9 306 11.6
2003-04-09 06:34:56 51°14.318 2°55.141 311 9 305 11.6
2003-04-09 06:35:03 51°14.327 2°55.118 310.8 9 304 11.6
2003-04-09 06:35:08 51°14.334 2°55.101 310.6 9.1 304 11.3
2003-04-09 06:35:12 51°14.339 2°55.087 310.4 9.1 304 11.7
2003-04-09 06:35:18 51°14.346 2°55.067 310.5 9.1 304 11.9
2003-04-09 06:35:23 51°14.353 2°55.05 310.5 9.1 304 12
2003-04-09 06:35:27 51°14.359 2°55.037 310.6 9.2 305 11.8
2003-04-09 06:35:32 51°14.366 2°55.02 310.6 9.2 305 11.8
2003-04-09 06:35:38 51°14.375 2°55.001 311 9.2 305 11.9
2003-04-09 06:35:43 51°14.382 2°54.984 311.3 9.3 305 12.1
2003-04-09 06:35:48 51°14.391 2°54.968 311.8 9.3 306 12.1
2003-04-09 06:35:52 51°14.397 2°54.954 311.7 9.3 306 12.2
2003-04-09 06:35:58 51°14.406 2°54.935 311.4 9.3 306 12.1
2003-04-09 06:36:03 51°14.413 2°54.918 311.3 9.3 306 11.9
2003-04-09 06:36:07 51°14.419 2°54.905 311.5 9.3 306 12
2003-04-09 06:36:12 51°14.427 2°54.888 311.8 9.3 306 12
2003-04-09 06:36:18 51°14.438 2°54.87 311.9 9.2 307 12
2003-04-09 06:36:23 51°14.447 2°54.854 312.7 9.2 307 12
2003-04-09 06:36:28 51°14.455 2°54.838 314.2 9.2 310 12
2003-04-09 06:36:33 51°14.464 2°54.823 316.2 9.2 311 12
2003-04-09 06:36:38 51°14.473 2°54.809 318.8 9.1 313 11.9
2003-04-09 06:36:43 51°14.482 2°54.795 321.4 9.1 316 11.7
2003-04-09 06:36:47 51°14.491 2°54.786 325.2 9 319 11.4
2003-04-09 06:36:52 51°14.504 2°54.776 329.8 9 325 11.6
2003-04-09 06:36:58 51°14.518 2°54.764 332.5 9 329 11.5
2003-04-09 06:37:03 51°14.529 2°54.755 334.5 9.1 331 11.5
2003-04-09 06:37:06 51°14.537 2°54.75 336.3 9.1 333 11.4
2003-04-09 06:37:12 51°14.55 2°54.74 337.8 9.1 335 11.4
2003-04-09 06:37:18 51°14.564 2°54.731 339.4 9 336 11.4
2003-04-09 06:37:22 51°14.573 2°54.725 340.7 9 337 11.3
2003-04-09 06:37:27 51°14.585 2°54.718 342.5 9 339 11.3
2003-04-09 06:37:32 51°14.597 2°54.712 344.5 9 340 11.2
2003-04-09 06:37:38 51°14.612 2°54.705 346.5 9 342 11.2
2003-04-09 06:37:43 51°14.624 2°54.7 348.5 9.1 344 11.2
2003-04-09 06:37:47 51°14.634 2°54.696 350.4 9.1 346 11.1
2003-04-09 06:37:52 51°14.646 2°54.692 352.5 9.1 347 11.1
2003-04-09 06:37:58 51°14.661 2°54.688 354.3 9 350 11
2003-04-09 06:38:03 51°14.673 2°54.685 355.5 9.1 351 11
2003-04-09 06:38:08 51°14.686 2°54.683 356 9.1 352 11
2003-04-09 06:38:12 51°14.696 2°54.681 356.3 9.1 352 11
2003-04-09 06:38:18 51°14.712 2°54.677 356.1 9.1 352 11
2003-04-09 06:38:23 51°14.724 2°54.674 355.6 9.1 352 11
2003-04-09 06:38:27 51°14.734 2°54.672 354.8 9.2 351 10.9
2003-04-09 06:38:32 51°14.747 2°54.669 354.6 9.5 352 10.9
2003-04-09 06:38:38 51°14.761 2°54.665 354.6 9.6 352 10.8
2003-04-09 06:38:42 51°14.771 2°54.662 354.8 9.3 351 10.8
2003-04-09 06:38:48 51°14.786 2°54.658 354.7 9.1 351 10.8
2003-04-09 06:38:53 51°14.798 2°54.654 354.4 9.1 351 10.8
2003-04-09 06:38:58 51°14.81 2°54.65 354 9.3 350 10.8
2003-04-09 06:39:03 51°14.822 2°54.647 353.9 9.2 350 10.8
2003-04-09 06:39:08 51°14.834 2°54.644 354.2 8.9 351 10.7
2003-04-09 06:39:12 51°14.844 2°54.642 354.9 8.6 351 10.8
2003-04-09 06:39:18 51°14.857 2°54.64 356 8 352 10.8
2003-04-09 06:39:23 51°14.867 2°54.639 357.3 7.7 353 10.8
2003-04-09 06:39:27 51°14.875 2°54.638 359 7.3 354 10.9
2003-04-09 06:39:32 51°14.884 2°54.637 0.7 7 355 10.8
2003-04-09 06:39:38 51°14.895 2°54.637 2.5 6.7 357 10.9
2003-04-09 06:39:43 51°14.903 2°54.637 4.3 6.6 359 10.9
2003-04-09 06:39:48 51°14.911 2°54.638 6 6.2 1 10.9
2003-04-09 06:39:52 51°14.917 2°54.638 7.8 6 3 10.8
2003-04-09 06:39:58 51°14.927 2°54.639 9.4 5.9 5 10.8
2003-04-09 06:40:02 51°14.933 2°54.641 10.7 5.6 6 10.8
2003-04-09 06:40:08 51°14.942 2°54.643 11.7 5.5 7 10.7
2003-04-09 06:40:13 51°14.949 2°54.645 12.8 5.3 7 10.7
2003-04-09 06:40:18 51°14.956 2°54.646 13.4 4.9 8 10.8
2003-04-09 06:40:23 51°14.963 2°54.648 14.3 4.9 9 10.8
2003-04-09 06:40:28 51°14.97 2°54.65 15 4.9 9 10.6
2003-04-09 06:40:32 51°14.975 2°54.651 15.4 4.9 9 10.5
2003-04-09 06:40:38 51°14.982 2°54.652 15.8 4.7 10 10.5
2003-04-09 06:40:42 51°14.987 2°54.654 16.2 4.5 11 10.5
2003-04-09 06:40:48 51°14.993 2°54.656 16.6 4.3 12 10.4
2003-04-09 06:40:52 51°14.997 2°54.658 16.6 4.2 11 10.4
2003-04-09 06:40:58 51°15.003 2°54.66 17 4.1 11 10.3
2003-04-09 06:41:03 51°15.007 2°54.662 17.2 4.1 10 10.3
2003-04-09 06:41:08 51°15.011 2°54.665 17.4 3.8 11 10.3
2003-04-09 06:41:12 51°15.015 2°54.666 17.8 3.6 11 10.3
2003-04-09 06:41:18 51°15.02 2°54.669 18 3.5 13 10.2
2003-04-09 06:41:22 51°15.024 2°54.67 18 3.5 13 10.2
2003-04-09 06:41:27 51°15.028 2°54.672 18.1 3.5 13 10.1
2003-04-09 06:41:32 51°15.033 2°54.674 18.2 3.5 12 10.1
2003-04-09 06:41:38 51°15.039 2°54.676 18.3 3.3 12 10.1
2003-04-09 06:41:43 51°15.044 2°54.678 18.3 3.3 13 10.1
2003-04-09 06:41:47 51°15.047 2°54.679 18.4 3.3 12 10.1
2003-04-09 06:41:52 51°15.052 2°54.68 18.2 3.2 11 10
2003-04-09 06:41:58 51°15.057 2°54.682 18 3.2 11 10
2003-04-09 06:42:03 51°15.061 2°54.683 17.9 3.2 12 10
2003-04-09 06:42:08 51°15.066 2°54.684 17.6 3.1 11 10
2003-04-09 06:42:12 51°15.069 2°54.685 17.4 3 10 10.1
2003-04-09 06:42:18 51°15.073 2°54.687 17.2 3 9 10
2003-04-09 06:42:22 51°15.076 2°54.688 17.1 3 9 9.9
2003-04-09 06:42:27 51°15.08 2°54.69 17 3 11 10
2003-04-09 06:42:32 51°15.084 2°54.692 17.2 2.9 12 10
2003-04-09 06:42:38 51°15.089 2°54.693 17.4 3 13 10
2003-04-09 06:42:42 51°15.093 2°54.694 17.9 3.2 13 9.9
2003-04-09 06:42:48 51°15.099 2°54.696 18.3 3.4 13 10
2003-04-09 06:42:53 51°15.104 2°54.698 19.1 3.7 14 9.9
2003-04-09 06:42:58 51°15.11 2°54.701 20.3 4.1 15 10
2003-04-09 06:43:03 51°15.116 2°54.704 21 4.3 15 10
2003-04-09 06:43:08 51°15.123 2°54.708 22.4 4.9 17 9.9
2003-04-09 06:43:12 51°15.13 2°54.712 24.8 5.4 19 9.9
2003-04-09 06:43:18 51°15.141 2°54.719 27.2 6.5 22 9.9
2003-04-09 06:43:23 51°15.151 2°54.726 30.1 7.2 24 9.8
2003-04-09 06:43:28 51°15.161 2°54.736 33.1 8.1 27 9.8
2003-04-09 06:43:32 51°15.17 2°54.744 36.5 8.6 29 9.7
2003-04-09 06:43:38 51°15.183 2°54.758 38.4 9.2 33 9.8
2003-04-09 06:43:42 51°15.192 2°54.768 39 9.5 34 9.7
2003-04-09 06:43:48 51°15.206 2°54.785 39 10.2 35 9.8
2003-04-09 06:43:52 51°15.217 2°54.796 41.3 10.8 36 9.8
2003-04-09 06:43:58 51°15.233 2°54.816 44.5 11.6 38 9.8
2003-04-09 06:44:03 51°15.246 2°54.835 47.1 12.1 40 9.8
2003-04-09 06:44:08 51°15.259 2°54.855 50.4 12.6 44 9.8
2003-04-09 06:44:12 51°15.268 2°54.872 53.5 12.8 46 9.7
2003-04-09 06:44:18 51°15.282 2°54.898 54.4 13.1 48 9.7
2003-04-09 06:44:22 51°15.292 2°54.916 54.4 13.2 49 9.7
2003-04-09 06:44:27 51°15.304 2°54.939 55.2 13.4 49 9.8
2003-04-09 06:44:33 51°15.318 2°54.965 55.4 13.5 49 9.7
2003-04-09 06:44:38 51°15.33 2°54.988 55.4 13.5 50 9.7
2003-04-09 06:44:43 51°15.342 2°55.01 54.5 13.6 49 9.7
2003-04-09 06:44:48 51°15.355 2°55.032 54.1 13.6 48 9.7
2003-04-09 06:44:52 51°15.365 2°55.05 54.6 13.6 48 9.7
2003-04-09 06:44:58 51°15.38 2°55.078 55.8 13.7 49 9.7
2003-04-09 06:45:03 51°15.392 2°55.102 56.5 13.7 50 9.7
2003-04-09 06:45:08 51°15.405 2°55.126 56.7 13.8 51 9.7
2003-04-09 06:45:12 51°15.415 2°55.146 56.6 13.8 51 9.8
2003-04-09 06:45:18 51°15.429 2°55.174 56.4 13.8 50 9.8
2003-04-09 06:45:23 51°15.442 2°55.197 55.8 13.9 50 9.8
2003-04-09 06:45:28 51°15.455 2°55.221 56 13.9 50 9.8
2003-04-09 06:45:32 51°15.465 2°55.239 55.7 14 50 9.8
2003-04-09 06:45:38 51°15.48 2°55.268 55.4 14 50 9.7
2003-04-09 06:45:42 51°15.491 2°55.287 55.4 14.1 50 9.7
2003-04-09 06:45:48 51°15.506 2°55.317 55.6 14.1 50 9.8
2003-04-09 06:45:53 51°15.518 2°55.341 55.9 14.2 50 9.8
2003-04-09 06:45:58 51°15.531 2°55.365 56 14.2 50 9.8
2003-04-09 06:46:03 51°15.543 2°55.39 56.1 14.2 52 9.8
2003-04-09 06:46:07 51°15.553 2°55.409 55.8 14.2 52 9.7
2003-04-09 06:46:12 51°15.566 2°55.432 55.8 14.2 51 9.8
2003-04-09 06:46:18 51°15.582 2°55.459 55.7 14.3 50 9.8
2003-04-09 06:46:23 51°15.595 2°55.484 55.8 14.3 50 9.8
2003-04-09 06:46:28 51°15.608 2°55.508 55.8 14.3 50 9.8
2003-04-09 06:46:32 51°15.618 2°55.527 56.2 14.3 50 9.8
2003-04-09 06:46:38 51°15.634 2°55.556 56.2 14.3 50 9.8
2003-04-09 06:46:43 51°15.646 2°55.58 56.5 14.3 50 9.8
2003-04-09 06:46:48 51°15.659 2°55.604 56.3 14.4 50 9.8
2003-04-09 06:46:52 51°15.669 2°55.624 56.3 14.4 50 9.9
2003-04-09 06:46:58 51°15.683 2°55.653 56.2 14.3 50 9.8
2003-04-09 06:47:02 51°15.692 2°55.672 56.1 14.3 50 9.8
2003-04-09 06:47:07 51°15.705 2°55.697 55.9 14.3 50 9.9
2003-04-09 06:47:12 51°15.718 2°55.722 55.6 14.3 50 9.8
2003-04-09 06:47:18 51°15.733 2°55.751 55.7 14.3 50 9.8
2003-04-09 06:47:23 51°15.746 2°55.775 55.8 14.3 50 9.9
2003-04-09 06:47:28 51°15.757 2°55.8 56.2 14.3 50 10
2003-04-09 06:47:33 51°15.77 2°55.823 55.9 14.3 50 9.9
2003-04-09 06:47:38 51°15.783 2°55.846 56 14.3 50 10
2003-04-09 06:47:42 51°15.794 2°55.865 56 14.3 50 9.9
2003-04-09 06:47:48 51°15.81 2°55.894 56.2 14.4 50 10
2003-04-09 06:47:52 51°15.82 2°55.914 55.8 14.4 50 10
2003-04-09 06:47:58 51°15.837 2°55.944 56.3 14.4 50 10
2003-04-09 06:48:03 51°15.85 2°55.969 55.8 14.4 50 10
2003-04-09 06:48:08 51°15.864 2°55.992 55.8 14.3 50 10
2003-04-09 06:48:12 51°15.874 2°56.012 56.1 14.3 50 10
2003-04-09 06:48:18 51°15.888 2°56.042 56 14.3 50 10
2003-04-09 06:48:23 51°15.902 2°56.065 56 14.3 50 10.1
2003-04-09 06:48:28 51°15.915 2°56.089 56 14.3 50 10
2003-04-09 06:48:33 51°15.927 2°56.113 55.8 14.3 50 10.1
2003-04-09 06:48:38 51°15.94 2°56.138 55.8 14.3 50 10.1
2003-04-09 06:48:43 51°15.952 2°56.163 56.1 14.2 50 10.5
2003-04-09 06:48:47 51°15.963 2°56.183 56.4 14.3 51 10.4
2003-04-09 06:48:52 51°15.976 2°56.207 57.4 14.4 51 10.2
2003-04-09 06:48:58 51°15.991 2°56.237 57.6 14.4 51 10.2
2003-04-09 06:49:03 51°16.003 2°56.262 58 14.5 51 10.3
2003-04-09 06:49:08 51°16.016 2°56.288 58.4 14.4 52 10.2
2003-04-09 06:49:13 51°16.028 2°56.313 58.3 14.3 52 10.2
2003-04-09 06:49:18 51°16.04 2°56.339 58.3 14.4 52 10.2
2003-04-09 06:49:23 51°16.053 2°56.364 58.3 14.4 52 10.2
2003-04-09 06:49:28 51°16.066 2°56.389 58.1 14.4 52 10.2
2003-04-09 06:49:32 51°16.076 2°56.409 58.1 14.3 52 10.3
2003-04-09 06:49:38 51°16.091 2°56.44 58.3 14.3 52 10.2
2003-04-09 06:49:43 51°16.103 2°56.465 58.2 14.3 52 10.3
2003-04-09 06:49:48 51°16.116 2°56.49 58.3 14.3 52 10.3
2003-04-09 06:49:52 51°16.126 2°56.509 58.6 14.3 52 10.3
2003-04-09 06:49:56 51°16.135 2°56.529 58.2 14.3 52 10.4
2003-04-09 06:50:03 51°16.152 2°56.565 58.3 14.3 52 10.5
2003-04-09 06:50:08 51°16.165 2°56.589 58.3 14.3 52 10.4
2003-04-09 06:50:12 51°16.175 2°56.61 58.1 14.3 52 10.5
2003-04-09 06:50:18 51°16.19 2°56.639 58 14.3 52 10.4
2003-04-09 06:50:22 51°16.2 2°56.659 58 14.3 52 10.5
2003-04-09 06:50:28 51°16.215 2°56.689 58.1 14.3 52 10.6
2003-04-09 06:50:32 51°16.224 2°56.709 58.4 14.3 52 10.5
2003-04-09 06:50:38 51°16.239 2°56.739 58.5 14.3 52 10.5
2003-04-09 06:50:43 51°16.25 2°56.763 58.3 14.3 52 10.4
2003-04-09 06:50:48 51°16.262 2°56.788 58.5 14.3 52 10.5
2003-04-09 06:50:52 51°16.272 2°56.808 58.5 14.3 52 10.5
2003-04-09 06:50:58 51°16.287 2°56.838 58.6 14.3 52 10.5
2003-04-09 06:51:03 51°16.299 2°56.863 58.4 14.2 52 10.5
2003-04-09 06:51:07 51°16.309 2°56.883 58.5 14.2 52 10.5
2003-04-09 06:51:12 51°16.321 2°56.907 58.4 14.2 52 10.5
2003-04-09 06:51:18 51°16.335 2°56.937 58.8 14.2 52 10.5
2003-04-09 06:51:22 51°16.345 2°56.957 58.7 14.2 52 10.5
2003-04-09 06:51:28 51°16.359 2°56.986 58.2 14.2 52 10.5
2003-04-09 06:51:32 51°16.369 2°57.005 58.4 14.3 52 10.5
2003-04-09 06:51:38 51°16.382 2°57.035 58.4 14.2 52 10.6
2003-04-09 06:51:43 51°16.394 2°57.059 58 14.3 52 10.6
2003-04-09 06:51:47 51°16.403 2°57.078 58 14.2 52 10.6
2003-04-09 06:51:52 51°16.416 2°57.102 58.1 14.2 52 10.6
2003-04-09 06:51:58 51°16.43 2°57.132 58.3 14.2 52 10.6
2003-04-09 06:52:03 51°16.443 2°57.157 58.2 14.1 52 10.6
2003-04-09 06:52:08 51°16.455 2°57.181 58.4 14.1 52 10.7
2003-04-09 06:52:12 51°16.465 2°57.201 58.6 14.2 52 10.6
2003-04-09 06:52:18 51°16.479 2°57.23 58.5 14.2 52 10.7
2003-04-09 06:52:22 51°16.489 2°57.249 58.4 14.1 52 10.6
2003-04-09 06:52:28 51°16.504 2°57.279 58.5 14.4 51 10.8
2003-04-09 06:52:32 51°16.514 2°57.299 58.2 14.8 50 10.7
2003-04-09 06:52:38 51°16.528 2°57.328 58.4 14.5 51 10.7
2003-04-09 06:52:43 51°16.539 2°57.352 58.1 14.3 51 10.7
2003-04-09 06:52:48 51°16.551 2°57.377 58.2 14.2 52 10.7
2003-04-09 06:52:52 51°16.561 2°57.396 58.4 14.1 52 10.7
2003-04-09 06:52:58 51°16.575 2°57.425 58.3 14.1 52 10.7
2003-04-09 06:53:03 51°16.587 2°57.449 58.2 14 52 10.8
2003-04-09 06:53:08 51°16.598 2°57.473 58 14 52 10.7
2003-04-09 06:53:12 51°16.608 2°57.493 58 14 52 10.7
2003-04-09 06:53:18 51°16.622 2°57.522 58.1 14.1 51 10.7
2003-04-09 06:53:23 51°16.632 2°57.545 58.5 14.1 52 10.7
2003-04-09 06:53:26 51°16.64 2°57.56 58.4 14.1 52 10.7
2003-04-09 06:53:32 51°16.656 2°57.591 58.6 14.1 52 10.7
2003-04-09 06:53:38 51°16.67 2°57.619 58.2 14.1 52 10.7
2003-04-09 06:53:42 51°16.679 2°57.638 58.1 14.2 52 10.6
2003-04-09 06:53:48 51°16.694 2°57.667 58.4 14.1 52 10.6
2003-04-09 06:53:53 51°16.705 2°57.691 58.4 14.1 52 10.7
2003-04-09 06:53:58 51°16.716 2°57.715 58.4 14.1 52 10.6
2003-04-09 06:54:03 51°16.728 2°57.74 58.4 14.1 52 10.7
2003-04-09 06:54:08 51°16.74 2°57.765 58.9 14.1 52 10.7
2003-04-09 06:54:13 51°16.751 2°57.791 59.7 14.1 53 10.7
2003-04-09 06:54:18 51°16.763 2°57.817 59.7 14.1 53 10.7
2003-04-09 06:54:23 51°16.775 2°57.843 60.2 14.1 54 10.7
2003-04-09 06:54:28 51°16.787 2°57.869 60.2 14.1 54 10.7
2003-04-09 06:54:32 51°16.796 2°57.889 60.7 14.2 54 10.8
2003-04-09 06:54:38 51°16.81 2°57.92 60.2 14.1 54 10.7
2003-04-09 06:54:42 51°16.82 2°57.94 60.5 14.1 54 10.6
2003-04-09 06:54:47 51°16.832 2°57.966 60.5 14.2 54 10.6
2003-04-09 06:54:52 51°16.843 2°57.992 60.5 14.1 55 10.7
2003-04-09 06:54:58 51°16.857 2°58.022 60.6 14 55 10.7
2003-04-09 06:55:03 51°16.868 2°58.048 60.7 14.1 55 10.6
2003-04-09 06:55:08 51°16.88 2°58.073 60.4 14.2 54 10.7
2003-04-09 06:55:12 51°16.888 2°58.094 60.5 14.2 54 10.6
2003-04-09 06:55:18 51°16.902 2°58.124 60.5 14.2 54 10.5
2003-04-09 06:55:23 51°16.914 2°58.149 60.4 14.2 54 10.6
2003-04-09 06:55:28 51°16.926 2°58.174 60.4 14.1 54 10.6
2003-04-09 06:55:33 51°16.938 2°58.199 60.2 14.1 54 10.6
2003-04-09 06:55:38 51°16.949 2°58.225 60 14.1 54 10.6
2003-04-09 06:55:43 51°16.961 2°58.25 60 14.2 54 10.5
2003-04-09 06:55:48 51°16.973 2°58.276 59.8 14.2 54 10.5
2003-04-09 06:55:52 51°16.982 2°58.296 60.2 14.2 54 10.5
2003-04-09 06:55:58 51°16.995 2°58.326 61 14.2 55 10.5
2003-04-09 06:56:03 51°17.007 2°58.352 61.6 14.1 55 10.5
2003-04-09 06:56:08 51°17.017 2°58.378 62.4 14.1 56 10.5
2003-04-09 06:56:12 51°17.026 2°58.399 62.3 14.1 56 10.5
2003-04-09 06:56:18 51°17.04 2°58.431 62.5 14.1 56 10.5
2003-04-09 06:56:22 51°17.049 2°58.451 62.5 14.2 56 10.5
2003-04-09 06:56:28 51°17.062 2°58.482 62.6 14.1 56 10.5
2003-04-09 06:56:32 51°17.07 2°58.503 62.6 14.1 56 10.5
2003-04-09 06:56:38 51°17.083 2°58.534 62.4 14.1 56 10.4
2003-04-09 06:56:42 51°17.092 2°58.555 62.2 14.2 56 10.5
2003-04-09 06:56:48 51°17.104 2°58.587 62.4 14.2 56 10.4
2003-04-09 06:56:52 51°17.113 2°58.607 62.5 14.2 56 10.5
2003-04-09 06:56:58 51°17.126 2°58.639 62.4 14.2 56 10.5
2003-04-09 06:57:03 51°17.137 2°58.664 62.4 14.1 56 10.4
2003-04-09 06:57:08 51°17.147 2°58.69 62.3 14.1 56 10.4
2003-04-09 06:57:12 51°17.156 2°58.711 62.3 14.1 56 10.4
2003-04-09 06:57:18 51°17.169 2°58.742 62.3 14.1 56 10.4
2003-04-09 06:57:23 51°17.18 2°58.768 62.2 14.1 56 10.4
2003-04-09 06:57:28 51°17.191 2°58.794 62.2 14.1 56 10.4
2003-04-09 06:57:32 51°17.2 2°58.815 62.6 14.1 56 10.4
2003-04-09 06:57:38 51°17.213 2°58.846 62.6 14.1 56 10.3
2003-04-09 06:57:42 51°17.221 2°58.868 62.7 14.1 57 10.3
2003-04-09 06:57:48 51°17.235 2°58.898 62.4 14.1 56 10.2
2003-04-09 06:57:53 51°17.246 2°58.924 62.5 14.2 56 10.2
2003-04-09 06:57:58 51°17.256 2°58.95 62.4 14.1 56 10.2
2003-04-09 06:58:03 51°17.267 2°58.976 62.5 14.1 56 10.2
2003-04-09 06:58:08 51°17.278 2°59.002 62.8 14.1 56 10.2
2003-04-09 06:58:12 51°17.286 2°59.023 62.8 14.1 57 10.2
2003-04-09 06:58:18 51°17.299 2°59.054 62.7 14.1 57 10.1
2003-04-09 06:58:23 51°17.31 2°59.08 62.5 14.1 57 10.1
2003-04-09 06:58:28 51°17.322 2°59.106 62.4 14.2 56 10.3
2003-04-09 06:58:32 51°17.331 2°59.127 62.4 14.1 56 10.1
2003-04-09 06:58:38 51°17.344 2°59.159 62.4 14.1 57 10.2
2003-04-09 06:58:42 51°17.352 2°59.18 62.7 14.1 57 10.1
2003-04-09 06:58:46 51°17.361 2°59.2 62.2 14.1 56 10.1
2003-04-09 06:58:52 51°17.374 2°59.231 62.5 14.1 56 10.1
2003-04-09 06:58:58 51°17.387 2°59.262 62.4 14.1 56 10.1
2003-04-09 06:59:03 51°17.398 2°59.288 62.2 14.1 56 10.1
2003-04-09 06:59:08 51°17.41 2°59.314 62.4 14.2 56 10
2003-04-09 06:59:12 51°17.418 2°59.335 62.2 14.2 56 10.1
2003-04-09 06:59:18 51°17.431 2°59.366 62.3 14.2 56 10.1
2003-04-09 06:59:22 51°17.44 2°59.387 62.4 14.2 56 10.1
2003-04-09 06:59:27 51°17.451 2°59.414 62.4 14.2 56 10
2003-04-09 06:59:32 51°17.461 2°59.44 62.5 14.2 56 10.1
2003-04-09 06:59:38 51°17.475 2°59.471 62.4 14.2 56 10.1
2003-04-09 06:59:43 51°17.486 2°59.497 62.2 14.2 56 10.1
2003-04-09 06:59:47 51°17.494 2°59.518 62.5 14.2 57 10.1
2003-04-09 06:59:52 51°17.504 2°59.545 63.3 14.1 58 9.9
2003-04-09 06:59:58 51°17.517 2°59.577 64.1 14.1 58 10
2003-04-09 07:00:03 51°17.528 2°59.604 64 14.2 58 10
2003-04-09 07:00:08 51°17.539 2°59.631 64.2 14.2 58 10
2003-04-09 07:00:12 51°17.546 2°59.652 64.4 14.2 59 10
2003-04-09 07:00:18 51°17.559 2°59.684 64.5 14.2 58 10
2003-04-09 07:00:22 51°17.567 2°59.706 64.6 14.1 59 10
2003-04-09 07:00:26 51°17.575 2°59.727 64.7 14.1 59 10
2003-04-09 07:00:32 51°17.587 2°59.76 64.9 14.2 59 10
2003-04-09 07:00:38 51°17.599 2°59.792 64.7 14.1 59 10
2003-04-09 07:00:43 51°17.609 2°59.819 64.5 14.1 59 9.9
2003-04-09 07:00:48 51°17.62 2°59.846 64.5 14.2 59 9.9
2003-04-09 07:00:52 51°17.628 2°59.867 64.5 14.1 59 9.9
2003-04-09 07:00:58 51°17.64 2°59.898 64.5 14.1 59 9.9
2003-04-09 07:01:03 51°17.65 2°59.925 64.5 14.1 59 10
2003-04-09 07:01:08 51°17.661 2°59.952 64.7 14.1 59 10
2003-04-09 07:01:12 51°17.669 2°59.973 65.8 14.2 60 9.9
2003-04-09 07:01:18 51°17.68 3°0.005 65.6 14.2 60 10
2003-04-09 07:01:23 51°17.69 3°0.033 66.2 14.2 60 9.8
2003-04-09 07:01:28 51°17.7 3°0.06 67.2 14.2 61 10
2003-04-09 07:01:32 51°17.707 3°0.082 68.4 14.2 62 9.8
2003-04-09 07:01:38 51°17.717 3°0.116 69.8 14.2 64 9.6
2003-04-09 07:01:42 51°17.724 3°0.139 70.5 14.2 65 9.7
2003-04-09 07:01:47 51°17.732 3°0.168 71.8 14.2 66 9.8
2003-04-09 07:01:53 51°17.742 3°0.202 71.5 14.2 65 9.7
2003-04-09 07:01:58 51°17.749 3°0.231 72.6 14.2 67 9.7
2003-04-09 07:02:03 51°17.757 3°0.26 72.3 14.1 66 9.6
2003-04-09 07:02:08 51°17.765 3°0.289 73.2 14.2 67 9.6
2003-04-09 07:02:12 51°17.771 3°0.312 72.6 14.2 67 9.6
2003-04-09 07:02:18 51°17.78 3°0.347 72.9 14.2 67 9.6
2003-04-09 07:02:23 51°17.787 3°0.375 73.1 14.2 67 9.7
2003-04-09 07:02:28 51°17.795 3°0.404 73.1 14.2 67 9.8
2003-04-09 07:02:32 51°17.801 3°0.427 72.6 14.2 67 9.8
2003-04-09 07:02:38 51°17.81 3°0.462 72.8 14.3 67 9.8
2003-04-09 07:02:43 51°17.818 3°0.491 72.5 14.3 67 9.9
2003-04-09 07:02:48 51°17.826 3°0.52 72.5 14.2 67 9.7
2003-04-09 07:02:52 51°17.832 3°0.543 72.6 14.2 67 9.7
2003-04-09 07:02:58 51°17.842 3°0.578 72 14.2 66 9.8
2003-04-09 07:03:03 51°17.85 3°0.606 71.1 14.2 66 9.7
2003-04-09 07:03:08 51°17.859 3°0.635 70.5 14.2 65 9.7
2003-04-09 07:03:12 51°17.866 3°0.657 70 14.2 64 9.6
2003-04-09 07:03:18 51°17.877 3°0.692 69.7 14.2 64 9.6
2003-04-09 07:03:22 51°17.884 3°0.715 69.8 14.2 64 9.6
2003-04-09 07:03:27 51°17.893 3°0.743 69.6 14.2 64 9.6
2003-04-09 07:03:32 51°17.902 3°0.772 69.3 14.2 64 9.6
2003-04-09 07:03:36 51°17.909 3°0.795 69.2 14.2 63 9.6
2003-04-09 07:03:43 51°17.922 3°0.834 69.4 14.2 64 9.6
2003-04-09 07:03:48 51°17.931 3°0.862 69 14.2 63 9.5
2003-04-09 07:03:52 51°17.938 3°0.885 69.3 14.2 64 9.5
2003-04-09 07:03:58 51°17.949 3°0.919 68.9 14.2 63 9.5
2003-04-09 07:04:03 51°17.957 3°0.947 69.3 14.2 64 9.5
2003-04-09 07:04:08 51°17.966 3°0.975 69.6 14.2 64 9.5
2003-04-09 07:04:12 51°17.972 3°0.998 69.8 14.2 64 9.8
2003-04-09 07:04:18 51°17.982 3°1.032 69.9 14.2 64 9.6
2003-04-09 07:04:23 51°17.991 3°1.06 70 14.2 64 9.9
2003-04-09 07:04:28 51°17.999 3°1.088 70.1 14.2 64 9.8
2003-04-09 07:04:33 51°18.008 3°1.116 69.9 14.2 64 9.5
2003-04-09 07:04:38 51°18.016 3°1.145 70.1 14.2 64 9.6
2003-04-09 07:04:43 51°18.024 3°1.173 70 14.2 64 9.7
2003-04-09 07:04:48 51°18.033 3°1.201 70.1 14.2 64 9.4
2003-04-09 07:04:52 51°18.04 3°1.224 69.5 14.2 64 9.5
2003-04-09 07:04:58 51°18.051 3°1.258 68.2 14.2 63 9.8
2003-04-09 07:05:02 51°18.058 3°1.28 68.6 14.2 63 9.8
2003-04-09 07:05:07 51°18.067 3°1.308 67.7 14.2 62 9.8
2003-04-09 07:05:13 51°18.078 3°1.342 67.8 14.3 62 9.6
2003-04-09 07:05:18 51°18.088 3°1.369 67.3 14.3 61 9.8
2003-04-09 07:05:22 51°18.095 3°1.392 67.3 14.3 62 9.9
2003-04-09 07:05:28 51°18.106 3°1.425 67.2 14.3 61 9.9
2003-04-09 07:05:32 51°18.114 3°1.447 67.3 14.2 61 9.8
2003-04-09 07:05:36 51°18.121 3°1.469 67.4 14.3 61 9.8
2003-04-09 07:05:43 51°18.134 3°1.508 67.5 14.3 62 9.8
2003-04-09 07:05:48 51°18.144 3°1.536 67.4 14.3 61 9.9
2003-04-09 07:05:53 51°18.153 3°1.563 67.5 14.2 62 9.9
2003-04-09 07:05:58 51°18.163 3°1.59 67.2 14.3 61 9.9
2003-04-09 07:06:03 51°18.173 3°1.618 67.1 14.3 61 9.8
2003-04-09 07:06:08 51°18.182 3°1.645 67.3 14.3 61 9.9
2003-04-09 07:06:12 51°18.19 3°1.667 66.8 14.3 61 9.8
2003-04-09 07:06:18 51°18.201 3°1.7 66.8 14.2 61 9.8
2003-04-09 07:06:23 51°18.211 3°1.728 67.3 14.3 61 9.8
2003-04-09 07:06:28 51°18.22 3°1.755 67.2 14.3 61 9.8
2003-04-09 07:06:32 51°18.228 3°1.777 67.3 14.3 61 9.7
2003-04-09 07:06:38 51°18.24 3°1.811 67.5 14.2 61 9.7
2003-04-09 07:06:43 51°18.249 3°1.838 67.2 14.2 61 9.7
2003-04-09 07:06:48 51°18.259 3°1.866 67.2 14.2 61 9.7
2003-04-09 07:06:52 51°18.266 3°1.887 66.8 14.2 61 9.7
2003-04-09 07:06:58 51°18.278 3°1.92 66.9 14.2 61 9.6
2003-04-09 07:07:03 51°18.287 3°1.947 67.1 14.2 61 9.5
2003-04-09 07:07:08 51°18.297 3°1.974 67.2 14.2 61 9.6
2003-04-09 07:07:13 51°18.306 3°2.002 67.1 14.2 61 9.6
2003-04-09 07:07:18 51°18.316 3°2.029 67.3 14.1 61 9.6
2003-04-09 07:07:22 51°18.323 3°2.05 67.5 14.1 61 9.5
2003-04-09 07:07:28 51°18.334 3°2.084 67.6 14.1 62 9.5
2003-04-09 07:07:32 51°18.342 3°2.106 67.1 14.1 61 9.6
2003-04-09 07:07:38 51°18.354 3°2.139 67.1 14.2 61 9.6
2003-04-09 07:07:42 51°18.361 3°2.161 67 14.2 61 9.4
2003-04-09 07:07:48 51°18.372 3°2.194 67.1 14.1 61 9.4
2003-04-09 07:07:52 51°18.38 3°2.215 67.3 14.1 61 9.5
2003-04-09 07:07:58 51°18.391 3°2.249 67.5 14.1 62 9.5
2003-04-09 07:08:03 51°18.401 3°2.277 67.3 14.1 61 9.3
2003-04-09 07:08:08 51°18.41 3°2.305 67 14.1 61 9.4
2003-04-09 07:08:13 51°18.419 3°2.332 67 14.1 61 9.4
2003-04-09 07:08:18 51°18.429 3°2.359 67.1 14.1 61 9.3
2003-04-09 07:08:23 51°18.438 3°2.387 67.1 14.1 61 9.3
2003-04-09 07:08:28 51°18.447 3°2.414 67.2 14.1 61 9.4
2003-04-09 07:08:32 51°18.455 3°2.436 66.9 14.1 61 9.4
2003-04-09 07:08:38 51°18.466 3°2.469 67.4 14 62 9.4
2003-04-09 07:08:43 51°18.475 3°2.496 67.5 14.1 62 9.4
2003-04-09 07:08:48 51°18.484 3°2.523 67.4 14.1 62 9.4
2003-04-09 07:08:52 51°18.492 3°2.546 67.5 14.1 62 9.4
2003-04-09 07:08:58 51°18.503 3°2.579 67.5 14 62 9.3
2003-04-09 07:09:03 51°18.512 3°2.606 67.6 14 62 9.3
2003-04-09 07:09:08 51°18.521 3°2.634 67.7 14 62 9.3
2003-04-09 07:09:12 51°18.528 3°2.656 67.3 14 62 9.3
2003-04-09 07:09:18 51°18.54 3°2.689 67.5 14.1 62 9.2
2003-04-09 07:09:22 51°18.547 3°2.711 67 14 61 9.3
2003-04-09 07:09:28 51°18.558 3°2.745 68.3 14 62 9.2
2003-04-09 07:09:32 51°18.564 3°2.767 68.9 14 63 9.3
2003-04-09 07:09:38 51°18.575 3°2.801 70.1 14 64 9.3
2003-04-09 07:09:42 51°18.581 3°2.823 70.4 14 64 9.3
2003-04-09 07:09:48 51°18.591 3°2.857 71.4 14 65 9.2
2003-04-09 07:09:52 51°18.597 3°2.879 71.3 14 65 9.3
2003-04-09 07:09:58 51°18.607 3°2.913 71.7 14 66 9.3
2003-04-09 07:10:03 51°18.615 3°2.94 71.7 14 66 9.3
2003-04-09 07:10:08 51°18.623 3°2.969 71.9 13.9 66 9.3
2003-04-09 07:10:13 51°18.631 3°2.997 71.9 13.9 66 9.3
2003-04-09 07:10:18 51°18.638 3°3.025 71.8 13.9 66 9.3
2003-04-09 07:10:22 51°18.645 3°3.048 71.6 14 66 9.3
2003-04-09 07:10:28 51°18.654 3°3.082 71.1 14 66 9.3
2003-04-09 07:10:32 51°18.66 3°3.104 71.6 14 66 9.2
2003-04-09 07:10:38 51°18.669 3°3.138 71.4 14 66 9.2
2003-04-09 07:10:43 51°18.677 3°3.167 71.8 13.9 66 9.3
2003-04-09 07:10:48 51°18.685 3°3.195 71.3 13.9 66 9.3
2003-04-09 07:10:52 51°18.691 3°3.217 71.3 14 66 9.3
2003-04-09 07:10:58 51°18.701 3°3.251 71.3 14 66 9.3
2003-04-09 07:11:03 51°18.709 3°3.279 71.1 14 66 9.3
2003-04-09 07:11:08 51°18.717 3°3.308 71.1 14 66 9.4
2003-04-09 07:11:13 51°18.725 3°3.336 71.3 14 66 9.4
2003-04-09 07:11:18 51°18.733 3°3.364 71.5 14 66 9.4
2003-04-09 07:11:22 51°18.739 3°3.387 71.6 14 66 9.3
2003-04-09 07:11:28 51°18.749 3°3.419 71.5 13.8 66 9.3
2003-04-09 07:11:32 51°18.754 3°3.439 71.6 13.3 66 9.3
2003-04-09 07:11:38 51°18.762 3°3.469 71.8 12.4 66 9.2
2003-04-09 07:11:42 51°18.767 3°3.488 72.3 12 67 9.4
2003-04-09 07:11:48 51°18.774 3°3.515 74 11.3 67 9.6
2003-04-09 07:11:52 51°18.778 3°3.532 75.8 10.6 69 9.6
2003-04-09 07:11:58 51°18.782 3°3.556 77.9 9.7 71 9.6
2003-04-09 07:12:03 51°18.785 3°3.575 81.4 9.1 74 9.6
2003-04-09 07:12:08 51°18.788 3°3.592 85 8.5 77 9.7
2003-04-09 07:12:13 51°18.789 3°3.609 88.5 8.1 80 9.9
2003-04-09 07:12:18 51°18.79 3°3.624 92.5 7.5 84 9.8
2003-04-09 07:12:23 51°18.79 3°3.639 95.8 7.1 87 9.7
2003-04-09 07:12:28 51°18.789 3°3.653 98.8 6.6 91 9.7
2003-04-09 07:12:32 51°18.789 3°3.664 102 6.2 93 9.8
2003-04-09 07:12:38 51°18.787 3°3.679 105.1 5.8 97 9.7
2003-04-09 07:12:43 51°18.785 3°3.691 107.8 5.6 99 9.6
2003-04-09 07:12:48 51°18.784 3°3.701 110.5 5.2 103 9.6
2003-04-09 07:12:52 51°18.783 3°3.71 113.5 5 105 9.6
2003-04-09 07:12:58 51°18.781 3°3.722 116.2 4.7 107 9.6
2003-04-09 07:13:03 51°18.779 3°3.731 118.5 4.4 109 9.6
2003-04-09 07:13:08 51°18.777 3°3.74 120.7 4.2 112 9.7
2003-04-09 07:13:12 51°18.774 3°3.746 122.6 4 114 9.7
2003-04-09 07:13:18 51°18.771 3°3.754 125.1 3.8 117 9.6
2003-04-09 07:13:22 51°18.769 3°3.76 127.4 3.6 120 9.6
2003-04-09 07:13:28 51°18.766 3°3.767 129.4 3.4 122 9.7
2003-04-09 07:13:32 51°18.764 3°3.771 131.4 3.3 123 9.8
2003-04-09 07:13:38 51°18.761 3°3.778 133 3.1 126 9.8
2003-04-09 07:13:42 51°18.759 3°3.782 134.8 3 126 9.9
2003-04-09 07:13:48 51°18.756 3°3.788 135.7 2.9 127 9.9
2003-04-09 07:13:52 51°18.754 3°3.791 136.7 2.8 128 9.9
2003-04-09 07:13:58 51°18.751 3°3.796 137.9 2.6 128 9.9
2003-04-09 07:14:03 51°18.749 3°3.8 138.9 2.4 131 9.9
2003-04-09 07:14:08 51°18.747 3°3.803 140.3 2 133 9.9
2003-04-09 07:14:12 51°18.745 3°3.805 141.5 1.9 134 9.8
2003-04-09 07:14:18 51°18.743 3°3.807 142.9 1.6 135 9.8
2003-04-09 07:14:23 51°18.741 3°3.809 144.4 1.5 138 9.8
2003-04-09 07:14:28 51°18.739 3°3.811 145.8 1.5 139 9.9
2003-04-09 07:14:32 51°18.738 3°3.812 147.2 1.4 141 9.8
2003-04-09 07:14:38 51°18.736 3°3.813 148.4 1.2 145 9.8
2003-04-09 07:14:43 51°18.735 3°3.814 149.9 0.9 149 9.8
2003-04-09 07:14:48 51°18.735 3°3.814 151.3 0.5 149 9.8
2003-04-09 07:14:52 51°18.735 3°3.814 152.8 0.3 156 9.8
2003-04-09 07:14:58 51°18.735 3°3.814 154.5 0.1 246 9.7
2003-04-09 07:15:02 51°18.735 3°3.813 155.9 0.3 296 9.8
2003-04-09 07:15:08 51°18.735 3°3.812 157.9 0.5 307 9.8
2003-04-09 07:15:12 51°18.736 3°3.811 160.2 0.7 313 9.8
2003-04-09 07:15:18 51°18.738 3°3.81 162.5 0.9 324 9.9
2003-04-09 07:15:23 51°18.739 3°3.809 165.1 0.9 324 7.3
2003-04-09 07:15:28 51°18.74 3°3.808 167.7 0.9 324 -999
2003-04-09 07:15:32 51°18.741 3°3.807 170.3 0.8 324 5.2
2003-04-09 07:15:38 51°18.743 3°3.806 173.1 0.8 324 5.4
2003-04-09 07:15:43 51°18.744 3°3.804 174.7 0.7 326 5.1
2003-04-09 07:15:48 51°18.745 3°3.804 176.5 0.6 323 5.1
2003-04-09 07:15:53 51°18.745 3°3.803 178.7 0.6 321 6.8
2003-04-09 07:15:58 51°18.746 3°3.802 180.1 0.6 320 9.8
2003-04-09 07:16:02 51°18.747 3°3.802 181.6 0.6 321 9.8
2003-04-09 07:16:08 51°18.748 3°3.801 183.3 0.6 323 9.8
2003-04-09 07:16:12 51°18.749 3°3.801 184.5 0.5 326 9.8
2003-04-09 07:16:18 51°18.749 3°3.8 185.8 0.5 322 9.8
2003-04-09 07:16:23 51°18.75 3°3.799 187.1 0.5 320 9.8
2003-04-09 07:16:28 51°18.75 3°3.798 188.3 0.5 318 9.8
2003-04-09 07:16:33 51°18.75 3°3.797 189.5 0.5 316 9.8
2003-04-09 07:16:36 51°18.751 3°3.796 190.7 0.5 310 9.8
2003-04-09 07:16:43 51°18.751 3°3.795 191.6 0.4 312 9.9
2003-04-09 07:16:48 51°18.751 3°3.794 192.8 0.5 311 9.9
2003-04-09 07:16:53 51°18.752 3°3.793 193.7 0.5 312 9.8
2003-04-09 07:16:58 51°18.752 3°3.792 194.8 0.4 306 9.8
2003-04-09 07:17:03 51°18.752 3°3.792 195.8 0.4 307 9.8
2003-04-09 07:17:08 51°18.752 3°3.791 196.6 0.4 303 9.8
2003-04-09 07:17:12 51°18.753 3°3.79 197.4 0.4 303 9.8
2003-04-09 07:17:18 51°18.753 3°3.789 198 0.4 298 9.8
2003-04-09 07:17:23 51°18.753 3°3.788 199 0.4 296 9.8
2003-04-09 07:17:28 51°18.754 3°3.787 199.8 0.4 298 9.8
2003-04-09 07:17:32 51°18.754 3°3.787 200.4 0.4 296 9.8
2003-04-09 07:17:38 51°18.754 3°3.786 201.1 0.4 294 9.8
2003-04-09 07:17:43 51°18.754 3°3.785 201.9 0.4 292 9.8
2003-04-09 07:17:48 51°18.754 3°3.784 202.5 0.4 285 9.8
2003-04-09 07:17:53 51°18.754 3°3.784 203.2 0.4 282 9.8
2003-04-09 07:17:58 51°18.754 3°3.783 203.6 0.4 283 9.8
2003-04-09 07:18:02 51°18.755 3°3.782 204.3 0.4 286 9.8
2003-04-09 07:18:07 51°18.755 3°3.781 204.8 0.4 286 9.7
2003-04-09 07:18:13 51°18.755 3°3.78 205.3 0.4 284 9.7
2003-04-09 07:18:18 51°18.755 3°3.779 205.6 0.4 285 9.7
2003-04-09 07:18:23 51°18.755 3°3.778 205.9 0.4 286 9.7
2003-04-09 07:18:28 51°18.755 3°3.777 206.1 0.4 286 9.7
2003-04-09 07:18:33 51°18.755 3°3.776 206.1 0.4 283 9.7
2003-04-09 07:18:38 51°18.756 3°3.775 206.3 0.4 276 9.7
2003-04-09 07:18:43 51°18.756 3°3.774 206.1 0.4 274 9.7
2003-04-09 07:18:48 51°18.756 3°3.773 206.1 0.4 274 9.7
2003-04-09 07:18:52 51°18.756 3°3.772 206.1 0.3 266 9.7
2003-04-09 07:18:58 51°18.756 3°3.771 205.8 0.4 268 9.7
2003-04-09 07:19:03 51°18.756 3°3.771 205.7 0.3 262 9.7
2003-04-09 07:19:08 51°18.756 3°3.77 205.4 0.4 271 9.8
2003-04-09 07:19:13 51°18.756 3°3.769 205.1 0.4 267 9.7
2003-04-09 07:19:18 51°18.756 3°3.768 204.6 0.5 269 9.8
2003-04-09 07:19:23 51°18.756 3°3.767 204 0.4 267 9.7
2003-04-09 07:19:28 51°18.756 3°3.766 203.5 0.5 264 9.7
2003-04-09 07:19:32 51°18.755 3°3.765 202.5 0.4 262 9.7
2003-04-09 07:19:38 51°18.755 3°3.764 202 0.5 260 9.7
2003-04-09 07:19:43 51°18.755 3°3.763 201.4 0.4 260 9.7
2003-04-09 07:19:48 51°18.755 3°3.762 200.6 0.4 262 9.7
2003-04-09 07:19:52 51°18.755 3°3.762 199.7 0.4 261 9.7
2003-04-09 07:19:58 51°18.755 3°3.761 199 0.4 265 9.7
2003-04-09 07:20:03 51°18.754 3°3.76 198.4 0.4 263 9.7
2003-04-09 07:20:08 51°18.754 3°3.759 197.7 0.4 256 9.7
2003-04-09 07:20:12 51°18.754 3°3.759 196.8 0.4 252 9.7
2003-04-09 07:20:18 51°18.754 3°3.758 196.2 0.4 250 9.7
2003-04-09 07:20:22 51°18.753 3°3.757 195.2 0.4 245 9.7
2003-04-09 07:20:28 51°18.753 3°3.757 194.5 0.4 246 9.7
2003-04-09 07:20:32 51°18.753 3°3.756 193.4 0.4 247 9.7
2003-04-09 07:20:38 51°18.753 3°3.755 192.7 0.4 246 9.7
2003-04-09 07:20:43 51°18.753 3°3.754 192.2 0.3 249 9.7
2003-04-09 07:20:48 51°18.753 3°3.754 191.4 0.4 249 9.7
2003-04-09 07:20:52 51°18.753 3°3.753 190.8 0.4 249 9.7
2003-04-09 07:20:58 51°18.753 3°3.752 190.1 0.3 249 9.7
2003-04-09 07:21:03 51°18.753 3°3.752 189.2 0.3 249 9.7
2003-04-09 07:21:08 51°18.753 3°3.751 188.7 0.4 252 9.7
2003-04-09 07:21:12 51°18.753 3°3.751 188.3 0.3 251 9.6
2003-04-09 07:21:18 51°18.753 3°3.75 187.7 0.4 248 9.6
2003-04-09 07:21:23 51°18.753 3°3.749 187.2 0.3 247 9.6
2003-04-09 07:21:28 51°18.752 3°3.749 186.5 0.3 247 9.6
2003-04-09 07:21:33 51°18.752 3°3.748 186.2 0.3 251 9.7
2003-04-09 07:21:38 51°18.752 3°3.747 185.6 0.3 249 9.7
2003-04-09 07:21:43 51°18.752 3°3.747 185 0.3 244 9.6
2003-04-09 07:21:48 51°18.752 3°3.746 184.6 0.3 240 9.7
2003-04-09 07:21:52 51°18.752 3°3.746 183.9 0.3 236 9.7
2003-04-09 07:21:58 51°18.751 3°3.745 183.2 0.4 227 9.7
2003-04-09 07:22:03 51°18.751 3°3.744 182.6 0.4 228 9.7
2003-04-09 07:22:08 51°18.751 3°3.744 182.1 0.3 235 9.6
2003-04-09 07:22:12 51°18.75 3°3.743 181.6 0.3 231 9.6
2003-04-09 07:22:18 51°18.749 3°3.742 181 0.3 225 9.7
2003-04-09 07:22:23 51°18.749 3°3.741 180.5 0.4 225 9.7
2003-04-09 07:22:28 51°18.749 3°3.741 180.3 0.4 223 9.6
2003-04-09 07:22:32 51°18.749 3°3.74 180 0.4 231 9.7
2003-04-09 07:22:38 51°18.749 3°3.739 179.7 0.3 237 9.7
2003-04-09 07:22:43 51°18.748 3°3.739 179.4 0.4 239 9.7
2003-04-09 07:22:48 51°18.748 3°3.738 179.4 0.4 239 9.6
2003-04-09 07:22:53 51°18.748 3°3.738 179.7 0.4 237 9.7
2003-04-09 07:22:58 51°18.747 3°3.737 180.1 0.4 223 9.7
2003-04-09 07:23:02 51°18.747 3°3.736 180.5 0.4 216 9.8
2003-04-09 07:23:08 51°18.747 3°3.735 180.5 0.4 215 9.7
2003-04-09 07:23:12 51°18.747 3°3.734 180.5 0.4 221 9.7
2003-04-09 07:23:18 51°18.746 3°3.734 180.4 0.4 223 9.7
2003-04-09 07:23:22 51°18.745 3°3.734 180.4 0.3 227 9.7
2003-04-09 07:23:28 51°18.744 3°3.732 180.4 0.3 229 9.7
2003-04-09 07:23:32 51°18.744 3°3.732 180.5 0.4 229 9.7
2003-04-09 07:23:38 51°18.744 3°3.731 180.7 0.4 227 9.8
2003-04-09 07:23:43 51°18.743 3°3.73 180.7 0.4 226 9.7
2003-04-09 07:23:48 51°18.743 3°3.729 180.7 0.4 225 9.8
2003-04-09 07:23:53 51°18.743 3°3.728 180.8 0.4 225 9.8
2003-04-09 07:23:58 51°18.743 3°3.728 180.7 0.4 222 9.7
2003-04-09 07:24:02 51°18.743 3°3.727 180.6 0.4 223 9.7
2003-04-09 07:24:08 51°18.744 3°3.726 180.4 0.4 224 9.7
2003-04-09 07:24:13 51°18.745 3°3.726 180.2 0.4 225 9.7
2003-04-09 07:24:18 51°18.745 3°3.725 180 0.4 227 9.7
2003-04-09 07:24:23 51°18.745 3°3.725 180 0.4 226 9.7
2003-04-09 07:24:28 51°18.744 3°3.725 179.9 0.4 225 9.7
2003-04-09 07:24:33 51°18.744 3°3.724 179.7 0.4 218 9.7
2003-04-09 07:24:38 51°18.741 3°3.722 179.3 0.5 215 9.7
2003-04-09 07:24:43 51°18.74 3°3.72 179.1 0.6 212 9.7
2003-04-09 07:24:48 51°18.739 3°3.72 178.7 0.7 203 9.7
2003-04-09 07:24:52 51°18.738 3°3.72 178.4 0.8 194 9.6
2003-04-09 07:24:58 51°18.735 3°3.718 178 1 188 9.6
2003-04-09 07:25:03 51°18.732 3°3.717 177.8 1.3 185 9.6
2003-04-09 07:25:08 51°18.73 3°3.716 178.2 1.7 185 9.6
2003-04-09 07:25:13 51°18.727 3°3.717 179.3 1.9 185 9.6
2003-04-09 07:25:18 51°18.723 3°3.717 182.2 2.3 186 9.7
2003-04-09 07:25:23 51°18.719 3°3.717 186.4 2.5 187 9.6
2003-04-09 07:25:28 51°18.714 3°3.714 192.2 3 192 9.6
2003-04-09 07:25:32 51°18.711 3°3.713 199.5 3.3 196 9.6
2003-04-09 07:25:38 51°18.705 3°3.708 207.9 3.8 205 9.7
2003-04-09 07:25:43 51°18.701 3°3.702 216.9 4.1 211 9.6
2003-04-09 07:25:48 51°18.696 3°3.695 225.8 4.5 221 9.7
2003-04-09 07:25:52 51°18.693 3°3.688 234.5 4.7 229 9.6
2003-04-09 07:25:58 51°18.69 3°3.676 243.3 4.9 239 9.6
2003-04-09 07:26:03 51°18.688 3°3.664 252.3 5.2 248 9.6
2003-04-09 07:26:08 51°18.687 3°3.653 260.9 5.3 256 9.5
2003-04-09 07:26:13 51°18.687 3°3.64 269.5 5.4 263 9.6
2003-04-09 07:26:18 51°18.688 3°3.628 278.2 5.6 273 9.5
2003-04-09 07:26:22 51°18.69 3°3.618 287.1 5.7 282 9.5
2003-04-09 07:26:28 51°18.694 3°3.604 295.8 5.7 290 9.6
2003-04-09 07:26:32 51°18.697 3°3.595 304.4 5.8 297 9.6
2003-04-09 07:26:38 51°18.704 3°3.584 312.8 5.9 307 9.5
2003-04-09 07:26:42 51°18.709 3°3.577 321.7 5.9 315 9.4
2003-04-09 07:26:48 51°18.717 3°3.569 330.5 5.9 323 9.5
2003-04-09 07:26:52 51°18.723 3°3.564 338.9 5.9 330 9.6
2003-04-09 07:26:58 51°18.733 3°3.56 347.5 5.9 339 9.6
2003-04-09 07:27:03 51°18.741 3°3.559 355.9 5.9 347 9.6
2003-04-09 07:27:08 51°18.749 3°3.559 4.6 6 356 9.5
2003-04-09 07:27:13 51°18.758 3°3.561 12.5 6.1 2 9.6
2003-04-09 07:27:18 51°18.768 3°3.565 18.5 6.7 10 9.6
2003-04-09 07:27:23 51°18.778 3°3.57 23.2 7.3 14 9.5
2003-04-09 07:27:28 51°18.789 3°3.578 27.3 8.1 19 9.5
2003-04-09 07:27:32 51°18.798 3°3.585 31.6 8.6 23 9.5
2003-04-09 07:27:38 51°18.813 3°3.598 35.8 9.4 27 9.6
2003-04-09 07:27:43 51°18.825 3°3.61 38.5 9.8 31 9.3
2003-04-09 07:27:48 51°18.837 3°3.623 39.3 10.3 33 9.4
2003-04-09 07:27:52 51°18.847 3°3.634 39.5 10.6 33 9.3
2003-04-09 07:27:58 51°18.863 3°3.65 39.6 11 34 9.3
2003-04-09 07:28:03 51°18.876 3°3.664 41 11.2 34 9.4
2003-04-09 07:28:08 51°18.889 3°3.68 42.9 11.5 36 9.3
2003-04-09 07:28:12 51°18.899 3°3.693 45.7 11.6 38 9.4
2003-04-09 07:28:18 51°18.913 3°3.714 46.7 11.8 40 9.3
2003-04-09 07:28:23 51°18.926 3°3.732 47 11.9 41 9.3
2003-04-09 07:28:28 51°18.938 3°3.749 46.4 11.9 40 9.2
2003-04-09 07:28:32 51°18.949 3°3.762 45 11.9 40 9.1
2003-04-09 07:28:38 51°18.965 3°3.781 43.4 12 38 9.1
2003-04-09 07:28:42 51°18.975 3°3.794 42.8 12.1 37 9
2003-04-09 07:28:48 51°18.991 3°3.814 42.8 12.1 37 9
2003-04-09 07:28:52 51°19.002 3°3.827 43.8 12.1 37 8.9
2003-04-09 07:28:56 51°19.013 3°3.84 45.6 12.1 39 8.9
2003-04-09 07:29:03 51°19.03 3°3.865 47.9 12.2 41 8.9
2003-04-09 07:29:08 51°19.042 3°3.885 51.9 12.2 44 8.9
2003-04-09 07:29:13 51°19.054 3°3.906 55.8 12.2 47 8.8
2003-04-09 07:29:18 51°19.064 3°3.927 56.8 12.1 50 8.8
2003-04-09 07:29:23 51°19.075 3°3.948 57.1 12.1 51 8.7
2003-04-09 07:29:28 51°19.085 3°3.97 57.3 12.1 51 8.8
2003-04-09 07:29:32 51°19.093 3°3.987 57.7 12.1 52 8.8
2003-04-09 07:29:38 51°19.106 3°4.012 58.4 12.2 53 8.8
2003-04-09 07:29:43 51°19.115 3°4.034 58.8 12.2 53 8.8
2003-04-09 07:29:48 51°19.126 3°4.055 58.8 12.2 53 8.8
2003-04-09 07:29:52 51°19.134 3°4.071 58 12.1 52 8.8
2003-04-09 07:29:58 51°19.147 3°4.096 56.9 12.1 51 8.8
2003-04-09 07:30:02 51°19.156 3°4.113 56.6 12.1 51 8.8
2003-04-09 07:30:08 51°19.168 3°4.138 57.9 12.1 51 8.7
2003-04-09 07:30:12 51°19.176 3°4.153 58.4 11.9 51 8.7
2003-04-09 07:30:18 51°19.188 3°4.173 52.9 11 48 8.8
2003-04-09 07:30:23 51°19.199 3°4.186 45.3 10.3 42 8.8
2003-04-09 07:30:28 51°19.21 3°4.195 37.1 9.3 33 8.9
2003-04-09 07:30:32 51°19.218 3°4.2 30 8.7 26 8.9
2003-04-09 07:30:38 51°19.23 3°4.206 22.6 7.9 18 9
2003-04-09 07:30:42 51°19.238 3°4.208 15.3 7.4 11 9
2003-04-09 07:30:48 51°19.248 3°4.208 8.1 6.9 5 9.1
2003-04-09 07:30:52 51°19.255 3°4.206 1.1 6.4 357 9.2
2003-04-09 07:30:58 51°19.265 3°4.202 354.1 6.1 350 9
2003-04-09 07:31:03 51°19.272 3°4.197 347.5 5.8 344 9
2003-04-09 07:31:08 51°19.278 3°4.192 340.7 5.5 338 9.2
2003-04-09 07:31:13 51°19.284 3°4.186 334 5.4 333 9.1
2003-04-09 07:31:18 51°19.29 3°4.179 327.5 5.1 326 9
2003-04-09 07:31:22 51°19.294 3°4.173 321.4 4.9 320 9.1
2003-04-09 07:31:28 51°19.299 3°4.164 315.1 4.8 314 9.2
2003-04-09 07:31:33 51°19.303 3°4.154 308.1 4.8 308 9.1
2003-04-09 07:31:38 51°19.306 3°4.144 300.1 4.8 300 9.1
2003-04-09 07:31:42 51°19.308 3°4.136 292.1 4.8 294 9.1
2003-04-09 07:31:46 51°19.309 3°4.128 284.5 4.8 284 9.1
2003-04-09 07:31:52 51°19.309 3°4.115 277 4.7 277 9.1
2003-04-09 07:31:58 51°19.308 3°4.103 269.7 4.6 269 9.1
2003-04-09 07:32:03 51°19.307 3°4.093 262.7 4.6 265 9.1
2003-04-09 07:32:08 51°19.305 3°4.083 255.8 4.5 258 9.1
2003-04-09 07:32:13 51°19.302 3°4.074 250.3 4.5 253 9.1
2003-04-09 07:32:18 51°19.299 3°4.065 246.6 4.3 247 9
2003-04-09 07:32:22 51°19.297 3°4.059 244 4.2 244 9.2
2003-04-09 07:32:27 51°19.295 3°4.051 242.4 4 243 9.3
2003-04-09 07:32:33 51°19.292 3°4.043 240.9 3.9 242 9.2
2003-04-09 07:32:38 51°19.29 3°4.036 239.5 3.8 241 9.2
2003-04-09 07:32:43 51°19.287 3°4.029 237.8 3.7 240 9.2
2003-04-09 07:32:48 51°19.284 3°4.022 235.9 3.5 238 9.2
2003-04-09 07:32:52 51°19.282 3°4.017 234 3.4 237 9.3
2003-04-09 07:32:56 51°19.28 3°4.012 232.2 3.3 234 9.2
2003-04-09 07:33:03 51°19.277 3°4.004 230.8 3.2 233 9.2
2003-04-09 07:33:08 51°19.274 3°3.999 229 3.1 232 9.2
2003-04-09 07:33:12 51°19.272 3°3.995 227.5 3 231 9.2
2003-04-09 07:33:18 51°19.269 3°3.99 225.8 2.9 230 9.2
2003-04-09 07:33:23 51°19.266 3°3.985 224.4 2.8 229 9.2
2003-04-09 07:33:28 51°19.263 3°3.981 222.8 2.8 226 9.3
2003-04-09 07:33:32 51°19.26 3°3.978 221.4 2.7 225 9.1
2003-04-09 07:33:38 51°19.257 3°3.974 219.8 2.6 222 9.1
2003-04-09 07:33:43 51°19.255 3°3.97 218.2 2.6 221 9.1
2003-04-09 07:33:48 51°19.252 3°3.967 217 2.5 220 9
2003-04-09 07:33:52 51°19.25 3°3.964 215.5 2.4 218 9
2003-04-09 07:33:58 51°19.247 3°3.96 214.1 2.3 217 9
2003-04-09 07:34:03 51°19.245 3°3.957 212.6 2.3 216 9
2003-04-09 07:34:08 51°19.242 3°3.954 211.1 2.3 214 9
2003-04-09 07:34:13 51°19.24 3°3.952 210 2.2 214 9
2003-04-09 07:34:18 51°19.238 3°3.95 208.6 2.1 213 9
2003-04-09 07:34:23 51°19.235 3°3.948 207.8 2.1 213 8.9
2003-04-09 07:34:28 51°19.233 3°3.946 206.8 2 212 8.9
2003-04-09 07:34:32 51°19.231 3°3.945 206.3 2 212 9
2003-04-09 07:34:38 51°19.229 3°3.942 205.4 1.9 211 9.1
2003-04-09 07:34:43 51°19.227 3°3.94 205.2 1.9 212 9.1
2003-04-09 07:34:48 51°19.224 3°3.937 204.6 1.8 213 8.9
2003-04-09 07:34:52 51°19.222 3°3.936 204 1.8 213 8.9
2003-04-09 07:34:58 51°19.22 3°3.933 203.5 1.8 210 9
2003-04-09 07:35:03 51°19.218 3°3.931 203.1 1.8 211 8.9
2003-04-09 07:35:08 51°19.216 3°3.929 202.8 1.8 211 8.9
2003-04-09 07:35:12 51°19.214 3°3.928 202.4 1.8 210 9
2003-04-09 07:35:18 51°19.212 3°3.925 202 1.9 211 9
2003-04-09 07:35:23 51°19.209 3°3.923 201.5 1.9 211 9
2003-04-09 07:35:28 51°19.206 3°3.921 201.7 2.1 209 9
2003-04-09 07:35:32 51°19.204 3°3.919 202.3 2.2 208 9.1
2003-04-09 07:35:38 51°19.2 3°3.915 202.8 2.3 209 9.1
2003-04-09 07:35:43 51°19.197 3°3.913 203.8 2.4 208 9.2
2003-04-09 07:35:48 51°19.194 3°3.911 203.9 2.6 207 9.1
2003-04-09 07:35:52 51°19.191 3°3.908 205.1 2.7 208 9.2
2003-04-09 07:35:58 51°19.187 3°3.904 206.5 2.9 208 9.2
2003-04-09 07:36:03 51°19.183 3°3.901 208.2 3 209 8.1
2003-04-09 07:36:08 51°19.179 3°3.897 210.2 3.1 212 9
2003-04-09 07:36:12 51°19.176 3°3.893 212.7 3.2 214 9
2003-04-09 07:36:18 51°19.172 3°3.888 215.7 3.3 216 9
2003-04-09 07:36:22 51°19.168 3°3.884 217.7 3.4 218 9.1
2003-04-09 07:36:27 51°19.165 3°3.879 220.6 3.5 220 9
2003-04-09 07:36:32 51°19.161 3°3.873 224.8 3.6 223 9
2003-04-09 07:36:38 51°19.156 3°3.866 228.4 3.7 226 8.9
2003-04-09 07:36:43 51°19.152 3°3.859 231.3 3.7 229 8.9
2003-04-09 07:36:48 51°19.149 3°3.852 235.7 3.8 233 8.9
2003-04-09 07:36:53 51°19.146 3°3.844 239.2 3.9 236 8.9
2003-04-09 07:36:58 51°19.143 3°3.837 241.8 4 239 9
2003-04-09 07:37:03 51°19.141 3°3.829 244.8 4 242 9
2003-04-09 07:37:08 51°19.139 3°3.821 246.6 4 244 9
2003-04-09 07:37:12 51°19.137 3°3.815 247.5 4.1 245 8.8
2003-04-09 07:37:18 51°19.135 3°3.805 247.4 4.1 245 8.9
2003-04-09 07:37:23 51°19.134 3°3.797 246.1 4.1 245 8.9
2003-04-09 07:37:28 51°19.131 3°3.788 244.1 4.1 243 8.9
2003-04-09 07:37:32 51°19.128 3°3.782 242.3 4.1 243 9
2003-04-09 07:37:37 51°19.125 3°3.774 240.7 4.2 240 8.9
2003-04-09 07:37:43 51°19.121 3°3.765 239 4.2 239 9
2003-04-09 07:37:48 51°19.118 3°3.757 238.5 4.2 237 9
2003-04-09 07:37:52 51°19.115 3°3.751 237.1 4.2 236 8.9
2003-04-09 07:37:58 51°19.11 3°3.742 235.7 4.2 235 8.9
2003-04-09 07:38:03 51°19.107 3°3.734 234.5 4.2 233 8.9
2003-04-09 07:38:07 51°19.104 3°3.728 233.6 4.2 233 8.9
2003-04-09 07:38:13 51°19.1 3°3.72 233.6 4.1 233 9
2003-04-09 07:38:18 51°19.096 3°3.713 232.9 4 233 9
2003-04-09 07:38:23 51°19.093 3°3.706 232.1 3.9 232 8.9
2003-04-09 07:38:28 51°19.089 3°3.699 231.5 3.9 231 8.9
2003-04-09 07:38:33 51°19.086 3°3.693 230.5 3.8 231 9
2003-04-09 07:38:38 51°19.083 3°3.687 229.9 3.7 231 9
2003-04-09 07:38:43 51°19.08 3°3.681 229.3 3.6 229 8.9
2003-04-09 07:38:48 51°19.076 3°3.675 228.6 3.6 230 8.9
2003-04-09 07:38:52 51°19.074 3°3.67 227.4 3.5 228 9
2003-04-09 07:38:58 51°19.069 3°3.663 226.4 3.4 228 9
2003-04-09 07:39:03 51°19.065 3°3.657 225.9 3.3 227 9
2003-04-09 07:39:08 51°19.061 3°3.65 225.5 3.3 226 9
2003-04-09 07:39:13 51°19.056 3°3.645 224.7 3.2 225 9
2003-04-09 07:39:16 51°19.054 3°3.642 224.5 3.1 226 8.9
2003-04-09 07:39:23 51°19.049 3°3.634 224.5 3.1 226 9
2003-04-09 07:39:28 51°19.046 3°3.629 224.5 3.1 226 8.9
2003-04-09 07:39:32 51°19.044 3°3.626 224.8 3 226 8.9
2003-04-09 07:39:38 51°19.041 3°3.621 225.7 2.9 227 8.8
2003-04-09 07:39:43 51°19.039 3°3.617 226.4 2.9 227 9
2003-04-09 07:39:48 51°19.037 3°3.612 227.4 2.9 228 8.9
2003-04-09 07:39:52 51°19.035 3°3.609 228.6 2.8 228 9
2003-04-09 07:39:58 51°19.033 3°3.604 230.3 2.8 232 8.9
2003-04-09 07:40:03 51°19.031 3°3.599 232.1 2.7 232 8.9
2003-04-09 07:40:08 51°19.029 3°3.594 233.5 2.7 234 9
2003-04-09 07:40:12 51°19.028 3°3.591 235.1 2.6 235 8.9
2003-04-09 07:40:18 51°19.025 3°3.586 237.3 2.6 236 8.9
2003-04-09 07:40:23 51°19.024 3°3.581 238.5 2.6 237 9
2003-04-09 07:40:28 51°19.023 3°3.576 240.3 2.6 241 9
2003-04-09 07:40:32 51°19.022 3°3.572 241.7 2.5 241 8.9
2003-04-09 07:40:38 51°19.02 3°3.566 242.5 2.5 244 8.9
2003-04-09 07:40:43 51°19.018 3°3.561 243.1 2.5 243 8.9
2003-04-09 07:40:48 51°19.017 3°3.557 243.4 2.6 242 8.9
2003-04-09 07:40:53 51°19.016 3°3.553 243 2.5 243 8.9
2003-04-09 07:40:58 51°19.015 3°3.548 242.2 2.5 242 8.8
2003-04-09 07:41:02 51°19.014 3°3.544 241.5 2.5 240 8.9
2003-04-09 07:41:08 51°19.012 3°3.538 240.9 2.5 241 8.8
2003-04-09 07:41:12 51°19.011 3°3.535 240.1 2.4 242 8.9
2003-04-09 07:41:18 51°19.009 3°3.529 239.2 2.4 242 8.9
2003-04-09 07:41:23 51°19.007 3°3.524 238.7 2.4 242 9
2003-04-09 07:41:28 51°19.005 3°3.519 238 2.4 241 8.9
2003-04-09 07:41:32 51°19.003 3°3.515 237.3 2.3 240 9
2003-04-09 07:41:38 51°19 3°3.51 236.4 2.3 238 8.8
2003-04-09 07:41:43 51°18.999 3°3.506 235.5 2.3 238 9
2003-04-09 07:41:48 51°18.997 3°3.501 234.8 2.3 237 9
2003-04-09 07:41:53 51°18.996 3°3.497 234.4 2.3 238 9
2003-04-09 07:41:58 51°18.994 3°3.492 234.1 2.3 237 8.9
2003-04-09 07:42:03 51°18.992 3°3.488 233.8 2.3 236 8.9
2003-04-09 07:42:08 51°18.991 3°3.484 233.5 2.3 235 8.9
2003-04-09 07:42:13 51°18.989 3°3.481 233.7 2.3 236 8.9
2003-04-09 07:42:18 51°18.987 3°3.477 233.9 2.3 237 8.9
2003-04-09 07:42:23 51°18.986 3°3.473 234.2 2.3 239 8.9
2003-04-09 07:42:28 51°18.984 3°3.468 234.2 2.2 239 8.9
2003-04-09 07:42:33 51°18.983 3°3.464 234.6 2.2 240 8.9
2003-04-09 07:42:38 51°18.981 3°3.46 235.1 2.2 238 8.9
2003-04-09 07:42:43 51°18.979 3°3.455 235.5 2.3 240 8.9
2003-04-09 07:42:48 51°18.978 3°3.452 235.8 2.3 239 8.9
2003-04-09 07:42:53 51°18.977 3°3.449 236 2.3 239 8.9
2003-04-09 07:42:58 51°18.976 3°3.444 236.3 2.3 240 8.9
2003-04-09 07:43:03 51°18.975 3°3.44 236.6 2.2 241 8.8
2003-04-09 07:43:08 51°18.973 3°3.435 236.9 2.3 240 8.9
2003-04-09 07:43:12 51°18.972 3°3.431 237.3 2.3 241 8.8
2003-04-09 07:43:18 51°18.97 3°3.426 237.6 2.2 241 8.8
2003-04-09 07:43:23 51°18.968 3°3.421 237.8 2.2 242 8.8
2003-04-09 07:43:28 51°18.967 3°3.417 238 2.2 243 8.8
2003-04-09 07:43:32 51°18.966 3°3.414 238.3 2.2 243 8.8
2003-04-09 07:43:38 51°18.964 3°3.408 238.6 2.2 243 8.9
2003-04-09 07:43:43 51°18.963 3°3.404 238.9 2.2 243 8.9
2003-04-09 07:43:48 51°18.96 3°3.399 239 2.2 241 8.8
2003-04-09 07:43:53 51°18.958 3°3.394 239.2 2.2 243 8.8
2003-04-09 07:43:58 51°18.957 3°3.39 239.7 2.2 244 8.8
2003-04-09 07:44:02 51°18.955 3°3.386 239.6 2.2 243 8.8
2003-04-09 07:44:08 51°18.954 3°3.381 239.5 2.2 243 8.8
2003-04-09 07:44:13 51°18.952 3°3.377 239.7 2.2 243 8.8
2003-04-09 07:44:18 51°18.952 3°3.373 240.2 2.2 245 8.8
2003-04-09 07:44:23 51°18.951 3°3.369 240.9 2.2 244 8.7
2003-04-09 07:44:28 51°18.95 3°3.365 241.6 2.2 244 8.8
2003-04-09 07:44:32 51°18.948 3°3.362 242.4 2.2 245 8.8
2003-04-09 07:44:38 51°18.948 3°3.358 243.1 2.1 246 8.8
2003-04-09 07:44:43 51°18.947 3°3.354 243.8 2.1 247 8.6
2003-04-09 07:44:48 51°18.947 3°3.349 244.5 2.1 247 8.8
2003-04-09 07:44:53 51°18.946 3°3.344 245.4 2.1 248 8.7
2003-04-09 07:44:58 51°18.945 3°3.34 246.5 2 250 8.8
2003-04-09 07:45:03 51°18.944 3°3.336 247.5 2 252 8.8
2003-04-09 07:45:08 51°18.943 3°3.332 248.6 2 252 8.8
2003-04-09 07:45:12 51°18.943 3°3.329 249.7 2 251 8.7
2003-04-09 07:45:18 51°18.941 3°3.323 250.8 2 250 8.8
2003-04-09 07:45:23 51°18.941 3°3.319 251.8 2 253 8.8
2003-04-09 07:45:28 51°18.94 3°3.315 252.7 2 255 8.8
2003-04-09 07:45:32 51°18.94 3°3.312 253.6 1.9 257 8.7
2003-04-09 07:45:38 51°18.94 3°3.307 254.7 1.9 258 8.7
2003-04-09 07:45:43 51°18.939 3°3.303 255.7 1.9 259 8.7
2003-04-09 07:45:48 51°18.939 3°3.299 256.7 1.8 259 8.7
2003-04-09 07:45:53 51°18.939 3°3.296 257.4 1.8 259 8.7
2003-04-09 07:45:58 51°18.939 3°3.293 258.3 1.8 259 8.7
2003-04-09 07:46:03 51°18.938 3°3.289 258.9 1.8 261 8.7
2003-04-09 07:46:08 51°18.938 3°3.285 259.3 1.8 263 8.7
2003-04-09 07:46:13 51°18.937 3°3.281 259.5 1.8 262 8.7
2003-04-09 07:46:18 51°18.937 3°3.277 259.5 1.7 262 8.8
2003-04-09 07:46:22 51°18.937 3°3.274 259.6 1.7 262 8.7
2003-04-09 07:46:28 51°18.936 3°3.27 259.2 1.7 262 8.7
2003-04-09 07:46:32 51°18.936 3°3.267 258.8 1.7 261 8.8
2003-04-09 07:46:38 51°18.936 3°3.262 258.3 1.7 260 8.8
2003-04-09 07:46:43 51°18.936 3°3.259 257.9 1.7 261 8.7